Time;durP1;ratioP1;P1;durP2;ratioP2;P2;SDS_P1;SDS_P2;PMS_P1;PMS_P2;Temp;Humidity;BMP_temperature;BMP_pressure;BME280_temperature;BME280_humidity;BME280_pressure;Samples;Min_cycle;Max_cycle;Signal;HPM_P1;HPM_P2
2022/08/12 00:44:49;;;;;;;10.15;6.32;;;;;;;;;;4966847;28;20483;-86
2022/08/12 00:47:17;;;;;;;9.85;6.10;;;;;;;;;;5036462;28;20113;-87
2022/08/12 00:49:44;;;;;;;11.27;7.00;;;;;;;;;;4970503;28;20034;-86
2022/08/12 00:52:11;;;;;;;11.48;6.18;;;;;;;;;;4970092;28;20039;-86
2022/08/12 00:54:43;;;;;;;17.75;5.90;;;;;;;;;;4970121;28;20030;-86
2022/08/12 00:57:14;;;;;;;9.98;6.28;;;;;;;;;;4965607;28;20028;-87
2022/08/12 00:59:59;;;;;;;7.72;5.93;;;;;;;;;;4963361;28;20073;-87
2022/08/12 01:02:27;;;;;;;9.38;5.72;;;;;;;;;;4952415;28;20034;-86
2022/08/12 01:13:14;;;;;;;12.20;6.57;;;;;;;;;;4970287;28;20096;-87
2022/08/12 01:15:40;;;;;;;11.05;6.68;;;;;;;;;;4968727;28;20031;-86
2022/08/12 01:18:06;;;;;;;21.73;6.50;;;;;;;;;;4950796;28;20125;-87
2022/08/12 01:20:53;;;;;;;14.65;6.43;;;;;;;;;;4968115;28;20023;-87
2022/08/12 01:23:23;;;;;;;15.30;6.63;;;;;;;;;;4970115;28;20027;-87
2022/08/12 01:25:49;;;;;;;15.23;6.47;;;;;;;;;;4952119;28;20027;-86
2022/08/12 01:28:16;;;;;;;14.23;7.88;;;;;;;;;;4933538;28;20045;-89
2022/08/12 01:30:42;;;;;;;13.15;7.13;;;;;;;;;;5025960;28;20046;-86
2022/08/12 01:33:14;;;;;;;15.00;6.80;;;;;;;;;;4952809;28;20035;-87
2022/08/12 01:35:43;;;;;;;18.27;8.57;;;;;;;;;;4962706;28;20027;-85
2022/08/12 01:38:10;;;;;;;12.52;7.97;;;;;;;;;;4969861;28;20046;-86
2022/08/12 01:40:40;;;;;;;15.13;8.00;;;;;;;;;;4966106;28;20379;-87
2022/08/12 01:43:07;;;;;;;10.98;7.63;;;;;;;;;;4967509;28;20030;-86
2022/08/12 01:45:34;;;;;;;11.90;8.05;;;;;;;;;;4968621;28;20026;-86
2022/08/12 01:48:06;;;;;;;12.98;7.28;;;;;;;;;;4969078;28;20083;-85
2022/08/12 01:50:39;;;;;;;14.35;7.72;;;;;;;;;;4966046;28;20034;-86
2022/08/12 01:53:05;;;;;;;13.90;7.50;;;;;;;;;;4967507;28;20537;-86
2022/08/12 01:55:33;;;;;;;11.00;7.47;;;;;;;;;;4964633;28;20034;-86
2022/08/12 01:58:14;;;;;;;13.52;7.40;;;;;;;;;;4968679;28;20018;-87
2022/08/12 02:00:50;;;;;;;12.63;7.60;;;;;;;;;;4964910;28;20031;-86
2022/08/12 02:03:19;;;;;;;13.65;8.00;;;;;;;;;;4970364;28;20039;-86
2022/08/12 02:11:31;;;;;;;19.30;8.10;;;;;;;;;;4966298;28;20521;-86
2022/08/12 02:14:05;;;;;;;17.00;7.90;;;;;;;;;;4969474;28;20035;-86
2022/08/12 02:16:50;;;;;;;12.35;8.32;;;;;;;;;;4960177;28;20027;-87
2022/08/12 02:19:34;;;;;;;16.05;8.13;;;;;;;;;;4967431;28;20051;-88
2022/08/12 02:22:12;;;;;;;9.40;7.93;;;;;;;;;;4966908;28;20027;-86
2022/08/12 02:24:39;;;;;;;17.90;9.25;;;;;;;;;;5027586;28;20486;-76
2022/08/12 02:27:09;;;;;;;16.08;8.25;;;;;;;;;;4968698;28;20062;-75
2022/08/12 02:29:36;;;;;;;12.73;8.10;;;;;;;;;;4966368;28;20113;-75
2022/08/12 02:32:04;;;;;;;10.75;8.25;;;;;;;;;;4965191;28;20027;-75
2022/08/12 02:34:30;;;;;;;14.85;8.32;;;;;;;;;;4971568;28;20180;-75
2022/08/12 02:36:57;;;;;;;13.98;8.50;;;;;;;;;;4946486;28;20031;-76
2022/08/12 02:39:25;;;;;;;12.90;7.90;;;;;;;;;;4959507;28;20129;-75
2022/08/12 02:41:52;;;;;;;11.60;8.90;;;;;;;;;;4949835;28;20030;-75
2022/08/12 02:44:19;;;;;;;13.07;8.30;;;;;;;;;;4967056;28;20035;-76
2022/08/12 02:46:49;;;;;;;13.13;8.88;;;;;;;;;;4963559;28;20482;-75
2022/08/12 02:49:29;;;;;;;13.35;8.60;;;;;;;;;;4950841;28;20113;-77
2022/08/12 02:51:55;;;;;;;11.15;8.90;;;;;;;;;;4965488;28;20070;-76
2022/08/12 02:54:21;;;;;;;10.82;8.25;;;;;;;;;;4946406;28;20113;-76
2022/08/12 02:56:48;;;;;;;13.13;9.18;;;;;;;;;;4965083;28;20054;-76
2022/08/12 02:59:15;;;;;;;13.50;9.82;;;;;;;;;;4967439;28;20041;-76
2022/08/12 03:02:03;;;;;;;11.48;8.68;;;;;;;;;;4959457;28;20440;-76
2022/08/12 03:04:36;;;;;;;19.45;9.90;;;;;;;;;;4974139;28;20526;-77
2022/08/12 03:07:02;;;;;;;12.13;9.43;;;;;;;;;;5045051;28;20486;-76
2022/08/12 03:09:31;;;;;;;15.30;9.43;;;;;;;;;;5048091;28;20035;-76
2022/08/12 03:12:03;;;;;;;12.68;8.30;;;;;;;;;;5046334;28;20496;-77
2022/08/12 03:14:32;;;;;;;13.90;9.05;;;;;;;;;;5049927;28;20037;-76
2022/08/12 03:17:17;;;;;;;19.20;9.27;;;;;;;;;;5048483;28;20120;-76
2022/08/12 03:19:44;;;;;;;12.93;9.32;;;;;;;;;;5053235;28;20683;-76
2022/08/12 03:22:13;;;;;;;14.25;8.82;;;;;;;;;;5047570;28;20036;-76
2022/08/12 03:24:43;;;;;;;13.82;8.90;;;;;;;;;;5046526;28;20044;-76
2022/08/12 03:27:11;;;;;;;16.70;9.77;;;;;;;;;;5047645;28;20441;-76
2022/08/12 03:29:38;;;;;;;16.42;10.18;;;;;;;;;;5063515;28;20418;-76
2022/08/12 03:32:04;;;;;;;16.58;10.52;;;;;;;;;;5045538;28;20063;-76
2022/08/12 03:34:34;;;;;;;14.10;9.65;;;;;;;;;;5049160;28;20477;-76
2022/08/12 03:37:01;;;;;;;12.88;9.77;;;;;;;;;;5048515;28;20386;-75
2022/08/12 03:42:05;;;;;;;15.73;10.02;;;;;;;;;;5047906;28;20044;-76
2022/08/12 04:01:12;;;;;;;15.80;9.98;;;;;;;;;;5048070;28;20048;-78
2022/08/12 04:03:51;;;;;;;17.42;10.38;;;;;;;;;;5052801;28;20025;-77
2022/08/12 04:06:20;;;;;;;14.23;9.95;;;;;;;;;;4969533;28;20039;-87
2022/08/12 04:08:48;;;;;;;12.10;10.02;;;;;;;;;;4971579;28;20042;-87
2022/08/12 04:14:05;;;;;;;14.45;11.13;;;;;;;;;;4972221;28;20100;-87
2022/08/12 04:16:31;;;;;;;19.10;11.10;;;;;;;;;;5034723;28;20042;-87
2022/08/12 04:18:57;;;;;;;20.08;11.23;;;;;;;;;;5022198;28;20042;-87
2022/08/12 04:21:24;;;;;;;19.92;11.35;;;;;;;;;;5036752;28;20117;-86
2022/08/12 04:23:50;;;;;;;21.48;11.07;;;;;;;;;;4969656;28;20395;-86
2022/08/12 04:26:16;;;;;;;25.80;11.80;;;;;;;;;;5035670;28;20405;-87
2022/08/12 04:28:43;;;;;;;14.75;10.65;;;;;;;;;;4970382;28;20043;-87
2022/08/12 04:31:09;;;;;;;22.08;11.23;;;;;;;;;;4966378;28;20121;-76
2022/08/12 04:33:36;;;;;;;19.95;11.57;;;;;;;;;;5037701;28;20046;-75
2022/08/12 04:36:02;;;;;;;18.52;11.85;;;;;;;;;;4969430;28;20042;-77
2022/08/12 04:38:29;;;;;;;19.98;11.70;;;;;;;;;;5021271;28;20031;-76
2022/08/12 04:40:56;;;;;;;22.05;11.93;;;;;;;;;;5034881;28;20042;-76
2022/08/12 04:43:22;;;;;;;19.40;11.95;;;;;;;;;;4952826;28;20055;-77
2022/08/12 04:45:48;;;;;;;19.88;11.45;;;;;;;;;;5038519;28;20031;-76
2022/08/12 04:48:14;;;;;;;20.77;12.20;;;;;;;;;;5035832;28;20098;-77
2022/08/12 04:50:41;;;;;;;20.27;11.18;;;;;;;;;;5022113;28;20045;-76
2022/08/12 04:53:07;;;;;;;13.43;10.13;;;;;;;;;;5038685;28;20046;-75
2022/08/12 04:55:34;;;;;;;12.90;9.02;;;;;;;;;;5037117;28;20030;-76
2022/08/12 04:58:00;;;;;;;15.27;9.52;;;;;;;;;;4966255;28;20038;-76
2022/08/12 05:00:26;;;;;;;11.40;8.50;;;;;;;;;;4965803;28;20035;-75
2022/08/12 05:02:52;;;;;;;12.60;8.40;;;;;;;;;;5036244;28;20035;-76
2022/08/12 05:05:21;;;;;;;15.02;9.82;;;;;;;;;;4978053;28;20089;-75
2022/08/12 05:07:47;;;;;;;16.58;8.48;;;;;;;;;;4968550;28;20399;-75
2022/08/12 05:10:13;;;;;;;16.63;8.55;;;;;;;;;;4945854;28;20027;-76
2022/08/12 05:12:41;;;;;;;25.80;8.05;;;;;;;;;;4969266;28;20042;-76
2022/08/12 05:15:08;;;;;;;10.80;7.45;;;;;;;;;;4967442;28;20023;-77
2022/08/12 05:17:34;;;;;;;12.02;7.22;;;;;;;;;;4970145;28;20483;-77
2022/08/12 05:20:00;;;;;;;16.15;8.65;;;;;;;;;;4971044;28;20122;-75
2022/08/12 05:22:26;;;;;;;14.52;7.70;;;;;;;;;;4953509;28;20106;-76
2022/08/12 05:24:53;;;;;;;53.10;11.77;;;;;;;;;;4978369;28;20022;-85
2022/08/12 05:27:21;;;;;;;45.13;9.63;;;;;;;;;;4986879;28;20081;-86
2022/08/12 05:29:48;;;;;;;15.40;7.95;;;;;;;;;;4974429;28;20019;-85
2022/08/12 05:32:19;;;;;;;21.75;7.63;;;;;;;;;;4970296;28;20058;-85
2022/08/12 05:34:45;;;;;;;;;;;;;;;;;;4971254;28;20452;-85
2022/08/12 05:37:11;;;;;;;13.43;7.03;;;;;;;;;;4988990;28;19995;-85
2022/08/12 05:39:37;;;;;;;15.90;7.38;;;;;;;;;;4974620;28;20046;-86
2022/08/12 05:42:03;;;;;;;35.80;9.35;;;;;;;;;;4964737;28;20502;-85
2022/08/12 05:44:30;;;;;;;16.90;7.00;;;;;;;;;;4935613;28;20521;-85
2022/08/12 05:46:57;;;;;;;20.30;7.35;;;;;;;;;;4953205;28;20358;-84
2022/08/12 05:49:23;;;;;;;15.65;6.05;;;;;;;;;;4953497;28;20038;-86
2022/08/12 05:51:49;;;;;;;16.17;6.70;;;;;;;;;;4969779;28;20130;-85
2022/08/12 05:54:17;;;;;;;9.75;6.65;;;;;;;;;;4969334;28;20065;-86
2022/08/12 05:56:44;;;;;;;15.23;6.50;;;;;;;;;;4968547;28;20057;-85
2022/08/12 05:59:11;;;;;;;12.10;6.68;;;;;;;;;;4955749;28;20041;-84
2022/08/12 06:01:37;;;;;;;12.75;7.28;;;;;;;;;;5033226;28;20065;-85
2022/08/12 06:04:04;;;;;;;17.85;6.50;;;;;;;;;;4967964;28;20400;-84
2022/08/12 06:06:34;;;;;;;13.65;6.10;;;;;;;;;;4951171;28;20057;-85
2022/08/12 06:09:00;;;;;;;13.45;6.28;;;;;;;;;;4969186;28;20495;-75
2022/08/12 06:11:26;;;;;;;10.35;5.82;;;;;;;;;;4967675;28;20074;-76
2022/08/12 06:13:54;;;;;;;11.07;6.28;;;;;;;;;;4953566;28;20031;-77
2022/08/12 06:16:21;;;;;;;10.23;6.45;;;;;;;;;;4966010;28;20027;-76
2022/08/12 06:18:47;;;;;;;15.90;6.18;;;;;;;;;;4952776;28;20046;-78
2022/08/12 06:21:15;;;;;;;23.23;7.13;;;;;;;;;;4975174;28;20023;-76
2022/08/12 06:23:41;;;;;;;12.77;5.82;;;;;;;;;;4980100;28;20056;-77
2022/08/12 06:26:10;;;;;;;7.22;5.60;;;;;;;;;;4965934;28;20039;-77
2022/08/12 06:28:36;;;;;;;17.15;6.13;;;;;;;;;;4962118;28;20027;-77
2022/08/12 06:31:02;;;;;;;13.48;6.38;;;;;;;;;;4959765;28;20053;-85
2022/08/12 06:33:28;;;;;;;11.68;5.70;;;;;;;;;;4983018;28;20023;-85
2022/08/12 06:35:56;;;;;;;11.10;5.35;;;;;;;;;;4952465;28;20038;-86
2022/08/12 06:38:24;;;;;;;10.27;5.40;;;;;;;;;;4934051;29;20024;-85
2022/08/12 06:43:37;;;;;;;22.23;6.22;;;;;;;;;;4951099;28;20081;-76
2022/08/12 06:46:03;;;;;;;15.40;6.45;;;;;;;;;;4988328;28;20075;-76
2022/08/12 06:48:29;;;;;;;12.77;5.40;;;;;;;;;;4967843;28;20035;-77
2022/08/12 06:50:56;;;;;;;10.27;6.05;;;;;;;;;;4968568;28;20035;-76
2022/08/12 06:53:23;;;;;;;16.33;5.63;;;;;;;;;;4950946;28;20030;-84
2022/08/12 06:55:49;;;;;;;8.30;5.57;;;;;;;;;;4958526;28;20030;-85
2022/08/12 06:58:16;;;;;;;12.20;6.20;;;;;;;;;;4950773;28;20053;-86
2022/08/12 07:00:42;;;;;;;8.20;5.57;;;;;;;;;;5035777;28;20160;-84
2022/08/12 07:03:09;;;;;;;14.43;6.57;;;;;;;;;;4969937;28;20096;-85
2022/08/12 07:05:37;;;;;;;10.00;6.22;;;;;;;;;;4967846;28;20050;-77
2022/08/12 07:08:05;;;;;;;12.13;6.75;;;;;;;;;;4968518;28;20409;-84
2022/08/12 07:10:32;;;;;;;9.48;6.32;;;;;;;;;;4951356;28;20096;-85
2022/08/12 07:13:00;;;;;;;13.45;5.88;;;;;;;;;;4951926;28;20061;-84
2022/08/12 07:15:27;;;;;;;12.43;5.65;;;;;;;;;;4959095;28;20032;-85
2022/08/12 07:20:34;;;;;;;11.60;6.80;;;;;;;;;;4971005;28;20130;-85
2022/08/12 07:23:00;;;;;;;11.32;6.38;;;;;;;;;;4967285;28;20042;-85
2022/08/12 07:25:29;;;;;;;13.95;6.30;;;;;;;;;;4967310;28;20031;-86
2022/08/12 07:27:57;;;;;;;14.45;6.53;;;;;;;;;;4947517;28;20035;-85
2022/08/12 07:30:23;;;;;;;15.45;6.40;;;;;;;;;;4972176;28;20049;-76
2022/08/12 07:32:50;;;;;;;20.05;6.72;;;;;;;;;;4975232;28;20558;-77
2022/08/12 07:35:17;;;;;;;11.95;6.03;;;;;;;;;;4974478;28;20395;-76
2022/08/12 07:37:43;;;;;;;13.35;6.45;;;;;;;;;;4951147;28;20026;-75
2022/08/12 07:40:10;;;;;;;12.30;6.25;;;;;;;;;;4966731;28;20092;-75
2022/08/12 07:42:37;;;;;;;10.98;6.53;;;;;;;;;;4971477;28;20023;-76
2022/08/12 07:45:06;;;;;;;14.18;7.18;;;;;;;;;;5033011;28;20030;-76
2022/08/12 07:47:33;;;;;;;13.88;5.80;;;;;;;;;;4970400;28;20030;-76
2022/08/12 07:50:00;;;;;;;11.57;6.15;;;;;;;;;;4964878;28;20081;-76
2022/08/12 07:52:26;;;;;;;7.88;5.80;;;;;;;;;;4967668;28;20031;-76
2022/08/12 07:54:52;;;;;;;11.27;6.15;;;;;;;;;;4973113;28;20061;-76
2022/08/12 07:57:18;;;;;;;13.27;6.15;;;;;;;;;;4967264;28;20043;-77
2022/08/12 07:59:45;;;;;;;14.57;6.10;;;;;;;;;;4970583;28;20038;-76
2022/08/12 08:02:11;;;;;;;17.45;6.75;;;;;;;;;;5028994;28;20031;-76
2022/08/12 08:04:55;;;;;;;11.68;5.78;;;;;;;;;;4970855;28;20069;-76
2022/08/12 08:07:22;;;;;;;10.43;5.22;;;;;;;;;;4949308;28;20194;-76
2022/08/12 08:09:48;;;;;;;10.10;5.70;;;;;;;;;;4966986;28;20180;-85
2022/08/12 08:14:59;;;;;;;10.95;5.30;;;;;;;;;;4962720;28;20058;-85
2022/08/12 08:17:25;;;;;;;9.50;5.13;;;;;;;;;;4946436;28;20475;-85
2022/08/12 08:19:51;;;;;;;17.30;5.47;;;;;;;;;;4964225;28;20073;-86
2022/08/12 08:22:22;;;;;;;12.20;5.22;;;;;;;;;;4963965;28;20058;-86
2022/08/12 08:24:56;;;;;;;12.57;4.60;;;;;;;;;;4965210;28;20034;-85
2022/08/12 08:27:22;;;;;;;7.43;4.63;;;;;;;;;;4963969;28;20028;-85
2022/08/12 08:29:48;;;;;;;13.25;4.90;;;;;;;;;;4966830;28;20035;-85
2022/08/12 08:32:14;;;;;;;10.57;5.18;;;;;;;;;;4982303;28;20540;-85
2022/08/12 08:34:41;;;;;;;8.75;4.82;;;;;;;;;;4968914;28;20035;-86
2022/08/12 08:37:07;;;;;;;24.02;5.05;;;;;;;;;;4952258;28;20038;-86
2022/08/12 08:39:33;;;;;;;16.60;4.88;;;;;;;;;;4965196;28;20030;-87
2022/08/12 08:44:45;;;;;;;23.88;5.68;;;;;;;;;;4968700;28;20065;-87
2022/08/12 08:47:12;;;;;;;15.27;4.85;;;;;;;;;;4969540;28;20084;-87
2022/08/12 08:49:39;;;;;;;11.60;4.75;;;;;;;;;;4969286;28;20093;-88
2022/08/12 08:52:05;;;;;;;11.73;4.50;;;;;;;;;;4969397;28;20464;-88
2022/08/12 08:54:32;;;;;;;14.02;4.63;;;;;;;;;;4968467;28;20173;-88
2022/08/12 08:57:00;;;;;;;10.02;4.45;;;;;;;;;;4965917;28;20395;-86
2022/08/12 08:59:26;;;;;;;9.93;4.25;;;;;;;;;;4965602;28;20027;-87
2022/08/12 09:01:52;;;;;;;54.10;6.93;;;;;;;;;;4968282;28;20036;-87
2022/08/12 09:04:19;;;;;;;16.35;4.15;;;;;;;;;;4955750;28;20058;-88
2022/08/12 09:06:46;;;;;;;12.93;3.97;;;;;;;;;;5051830;28;20060;-87
2022/08/12 09:09:16;;;;;;;12.23;4.18;;;;;;;;;;5046150;28;20037;-87
2022/08/12 09:14:29;;;;;;;11.50;4.00;;;;;;;;;;5047758;28;20092;-88
2022/08/12 09:16:55;;;;;;;9.63;3.72;;;;;;;;;;5040617;28;20040;-87
2022/08/12 09:19:21;;;;;;;10.55;4.00;;;;;;;;;;5038179;28;20740;-88
2022/08/12 09:21:47;;;;;;;15.60;4.28;;;;;;;;;;5052915;28;20029;-87
2022/08/12 09:24:19;;;;;;;15.27;4.22;;;;;;;;;;5037979;28;20024;-87
2022/08/12 09:26:46;;;;;;;17.75;3.95;;;;;;;;;;5050865;28;20442;-88
2022/08/12 09:29:13;;;;;;;17.63;4.10;;;;;;;;;;5047389;28;20374;-88
2022/08/12 09:31:40;;;;;;;14.10;4.28;;;;;;;;;;5050165;28;20377;-88
2022/08/12 09:34:08;;;;;;;9.05;4.28;;;;;;;;;;5054025;28;20024;-88
2022/08/12 09:36:37;;;;;;;11.60;3.85;;;;;;;;;;5056975;28;20143;-86
2022/08/12 09:39:03;;;;;;;11.65;4.15;;;;;;;;;;5047945;28;20136;-88
2022/08/12 09:41:37;;;;;;;8.18;3.45;;;;;;;;;;5043413;28;20036;-87
2022/08/12 09:46:55;;;;;;;19.02;4.20;;;;;;;;;;5024888;28;20033;-89
2022/08/12 09:49:23;;;;;;;13.82;3.53;;;;;;;;;;5046230;28;20167;-88
2022/08/12 09:51:49;;;;;;;13.50;3.88;;;;;;;;;;5049509;28;20032;-89
2022/08/12 09:54:16;;;;;;;17.33;4.35;;;;;;;;;;5051715;28;20039;-88
2022/08/12 09:56:44;;;;;;;15.40;4.20;;;;;;;;;;5033488;28;20383;-89
2022/08/12 09:59:10;;;;;;;15.15;4.10;;;;;;;;;;5056331;28;20378;-89
2022/08/12 10:01:40;;;;;;;12.10;4.35;;;;;;;;;;5021527;28;20033;-88
2022/08/12 10:04:10;;;;;;;19.95;3.92;;;;;;;;;;5051894;28;20029;-88
2022/08/12 10:06:37;;;;;;;14.52;3.60;;;;;;;;;;4970866;28;20043;-89
2022/08/12 10:09:05;;;;;;;17.38;3.90;;;;;;;;;;4969444;28;20088;-89
2022/08/12 10:14:16;;;;;;;25.58;4.22;;;;;;;;;;4970381;28;20049;-88
2022/08/12 10:16:43;;;;;;;20.20;4.00;;;;;;;;;;5033617;28;20030;-88
2022/08/12 10:19:09;;;;;;;18.42;3.67;;;;;;;;;;4965533;28;20129;-88
2022/08/12 10:21:36;;;;;;;26.65;4.60;;;;;;;;;;4960109;28;20790;-89
2022/08/12 10:24:14;;;;;;;15.00;3.70;;;;;;;;;;4970530;28;20043;-87
2022/08/12 10:29:35;;;;;;;9.00;3.40;;;;;;;;;;4971456;28;20123;-88
2022/08/12 10:32:02;;;;;;;15.40;3.63;;;;;;;;;;4954886;28;20087;-88
2022/08/12 10:34:29;;;;;;;16.83;4.00;;;;;;;;;;4970977;28;20023;-88
2022/08/12 10:36:57;;;;;;;10.88;3.50;;;;;;;;;;4969107;28;20045;-88
2022/08/12 10:39:23;;;;;;;14.55;3.78;;;;;;;;;;4970721;28;20045;-87
2022/08/12 10:44:35;;;;;;;9.02;3.97;;;;;;;;;;4971584;28;20038;-88
2022/08/12 10:47:01;;;;;;;13.10;3.75;;;;;;;;;;4965869;28;20022;-88
2022/08/12 10:49:33;;;;;;;15.85;3.38;;;;;;;;;;4967656;28;20042;-89
2022/08/12 10:52:01;;;;;;;6.38;3.60;;;;;;;;;;4965327;28;20027;-89
2022/08/12 10:54:27;;;;;;;10.00;3.33;;;;;;;;;;5034342;28;20039;-87
2022/08/12 10:56:56;;;;;;;11.40;3.58;;;;;;;;;;5032154;28;20038;-88
2022/08/12 10:59:23;;;;;;;17.23;3.50;;;;;;;;;;4953963;28;20041;-88
2022/08/12 11:01:50;;;;;;;6.85;3.03;;;;;;;;;;4969123;28;20038;-88
2022/08/12 11:04:16;;;;;;;9.80;3.45;;;;;;;;;;4953590;28;20070;-88
2022/08/12 11:06:47;;;;;;;10.82;3.38;;;;;;;;;;4954847;28;20120;-88
2022/08/12 11:09:26;;;;;;;9.25;3.97;;;;;;;;;;4969770;28;20117;-88
2022/08/12 11:11:53;;;;;;;12.35;3.78;;;;;;;;;;4968638;28;20023;-88
2022/08/12 11:14:32;;;;;;;10.15;3.10;;;;;;;;;;4965414;28;20610;-89
2022/08/12 11:17:02;;;;;;;12.30;3.40;;;;;;;;;;4960778;28;20022;-87
2022/08/12 11:19:29;;;;;;;10.30;3.08;;;;;;;;;;4970014;28;20062;-74
2022/08/12 11:21:55;;;;;;;13.57;3.47;;;;;;;;;;4963273;28;20114;-76
2022/08/12 11:24:22;;;;;;;10.98;2.90;;;;;;;;;;4965856;28;20030;-87
2022/08/12 11:26:48;;;;;;;9.13;3.20;;;;;;;;;;4962235;28;20033;-74
2022/08/12 11:29:15;;;;;;;12.55;3.60;;;;;;;;;;4965292;28;20035;-79
2022/08/12 11:31:41;;;;;;;8.10;2.85;;;;;;;;;;4970300;28;20026;-88
2022/08/12 11:34:07;;;;;;;8.88;3.13;;;;;;;;;;4953208;28;20172;-76
2022/08/12 11:36:33;;;;;;;13.65;3.38;;;;;;;;;;4962933;28;20035;-88
2022/08/12 11:38:59;;;;;;;10.27;3.30;;;;;;;;;;4980814;28;20502;-75
2022/08/12 11:41:27;;;;;;;10.45;2.90;;;;;;;;;;4963089;28;20034;-76
2022/08/12 11:43:53;;;;;;;8.48;3.40;;;;;;;;;;4965595;28;20316;-87
2022/08/12 11:46:19;;;;;;;11.63;3.70;;;;;;;;;;4965679;28;20072;-87
2022/08/12 11:48:45;;;;;;;22.17;4.65;;;;;;;;;;4955832;28;20039;-77
2022/08/12 11:51:11;;;;;;;15.43;3.92;;;;;;;;;;4965837;28;20035;-76
2022/08/12 11:53:37;;;;;;;10.15;3.50;;;;;;;;;;5027793;28;20039;-76
2022/08/12 11:56:05;;;;;;;10.25;3.55;;;;;;;;;;4966409;28;20039;-76
2022/08/12 11:58:31;;;;;;;7.57;4.00;;;;;;;;;;4970271;28;20026;-77
2022/08/12 12:00:57;;;;;;;13.70;3.60;;;;;;;;;;4957742;28;20034;-76
2022/08/12 12:03:24;;;;;;;13.63;3.65;;;;;;;;;;4964236;28;20030;-75
2022/08/12 12:05:50;;;;;;;11.65;3.60;;;;;;;;;;4962857;28;20175;-76
2022/08/12 12:08:20;;;;;;;12.85;3.85;;;;;;;;;;4965928;28;20039;-88
2022/08/12 12:10:46;;;;;;;11.23;3.78;;;;;;;;;;4989287;28;20038;-88
2022/08/12 12:13:12;;;;;;;8.10;3.40;;;;;;;;;;4962639;28;20042;-87
2022/08/12 12:15:38;;;;;;;9.48;3.85;;;;;;;;;;4967487;28;20031;-76
2022/08/12 12:18:04;;;;;;;10.70;3.22;;;;;;;;;;4969673;28;20050;-75
2022/08/12 12:20:30;;;;;;;14.80;3.50;;;;;;;;;;4967054;28;20437;-77
2022/08/12 12:22:56;;;;;;;11.43;2.65;;;;;;;;;;4963765;28;20038;-89
2022/08/12 12:25:22;;;;;;;18.98;3.40;;;;;;;;;;4967208;28;20077;-86
2022/08/12 12:27:52;;;;;;;10.02;3.13;;;;;;;;;;4965377;28;20384;-89
2022/08/12 12:30:19;;;;;;;8.27;2.95;;;;;;;;;;4970125;28;20039;-89
2022/08/12 12:32:45;;;;;;;8.40;2.72;;;;;;;;;;4961953;28;20065;-88
2022/08/12 12:35:11;;;;;;;9.52;3.30;;;;;;;;;;4962332;28;20036;-87
2022/08/12 12:37:51;;;;;;;10.13;2.83;;;;;;;;;;4964201;28;20062;-88
2022/08/12 12:40:17;;;;;;;10.90;2.83;;;;;;;;;;5040309;28;20034;-88
2022/08/12 12:42:43;;;;;;;13.73;2.83;;;;;;;;;;4984385;28;20037;-87
2022/08/12 12:45:09;;;;;;;4.43;2.88;;;;;;;;;;4975610;28;20035;-89
2022/08/12 12:47:35;;;;;;;15.00;3.08;;;;;;;;;;5021057;28;20038;-88
2022/08/12 12:50:02;;;;;;;9.48;3.28;;;;;;;;;;4972062;28;20038;-88
2022/08/12 12:52:29;;;;;;;6.68;2.78;;;;;;;;;;4953734;28;20026;-87
2022/08/12 12:54:57;;;;;;;4.97;2.67;;;;;;;;;;5035603;28;21591;-85
2022/08/12 12:57:24;;;;;;;14.10;2.72;;;;;;;;;;4974004;28;20038;-88
2022/08/12 13:02:39;;;;;;;11.98;3.33;;;;;;;;;;4955980;28;20053;-88
2022/08/12 13:05:06;;;;;;;6.57;2.83;;;;;;;;;;4975806;28;20103;-88
2022/08/12 13:07:37;;;;;;;10.60;2.88;;;;;;;;;;4968870;28;20038;-87
2022/08/12 13:10:05;;;;;;;9.30;3.03;;;;;;;;;;4969461;28;20044;-87
2022/08/12 13:12:32;;;;;;;5.40;2.75;;;;;;;;;;4966256;28;20035;-88
2022/08/12 13:14:58;;;;;;;8.65;2.60;;;;;;;;;;4971919;28;20034;-77
2022/08/12 13:17:24;;;;;;;7.30;2.45;;;;;;;;;;4970329;28;20427;-76
2022/08/12 13:19:50;;;;;;;16.55;3.28;;;;;;;;;;5038589;28;20043;-75
2022/08/12 13:22:16;;;;;;;9.75;2.67;;;;;;;;;;4969560;28;20085;-74
2022/08/12 13:24:43;;;;;;;8.57;2.75;;;;;;;;;;4968829;28;20027;-76
2022/08/12 13:27:09;;;;;;;12.15;2.80;;;;;;;;;;4974272;28;20130;-76
2022/08/12 13:29:37;;;;;;;10.02;2.40;;;;;;;;;;4979470;28;20449;-75
2022/08/12 13:32:04;;;;;;;9.75;2.58;;;;;;;;;;5052952;28;20031;-77
2022/08/12 13:34:31;;;;;;;6.75;3.05;;;;;;;;;;4985949;28;20035;-76
2022/08/12 13:36:57;;;;;;;6.95;2.70;;;;;;;;;;4970237;28;20414;-81
2022/08/12 13:39:24;;;;;;;12.07;2.83;;;;;;;;;;4969013;28;20524;-75
2022/08/12 13:41:50;;;;;;;10.13;2.95;;;;;;;;;;5033700;28;20023;-77
2022/08/12 13:44:17;;;;;;;6.07;2.90;;;;;;;;;;5017786;28;20039;-77
2022/08/12 13:46:43;;;;;;;4.20;2.50;;;;;;;;;;5036896;28;20074;-77
2022/08/12 13:49:12;;;;;;;6.85;2.85;;;;;;;;;;5066662;28;20039;-77
2022/08/12 13:51:39;;;;;;;9.30;2.53;;;;;;;;;;4964540;28;20078;-76
2022/08/12 13:54:05;;;;;;;14.75;2.85;;;;;;;;;;4973420;28;20026;-77
2022/08/12 13:56:35;;;;;;;7.45;2.70;;;;;;;;;;4972156;28;20030;-76
2022/08/12 13:59:04;;;;;;;9.75;2.53;;;;;;;;;;5036481;28;20027;-77
2022/08/12 14:01:30;;;;;;;6.55;2.90;;;;;;;;;;4971715;28;20023;-77
2022/08/12 14:03:56;;;;;;;12.60;2.80;;;;;;;;;;4964306;28;20384;-77
2022/08/12 14:06:22;;;;;;;8.00;2.80;;;;;;;;;;4970201;28;20058;-75
2022/08/12 14:08:48;;;;;;;12.45;3.20;;;;;;;;;;4964432;28;20071;-76
2022/08/12 14:11:15;;;;;;;9.20;2.90;;;;;;;;;;4968901;28;20087;-76
2022/08/12 14:13:41;;;;;;;12.23;3.03;;;;;;;;;;4947046;28;20034;-75
2022/08/12 14:16:09;;;;;;;9.32;2.83;;;;;;;;;;4968545;28;20091;-75
2022/08/12 14:18:38;;;;;;;11.85;2.90;;;;;;;;;;4961111;28;20567;-76
2022/08/12 14:21:04;;;;;;;12.23;3.03;;;;;;;;;;4968119;28;20038;-76
2022/08/12 14:23:31;;;;;;;11.27;3.35;;;;;;;;;;4966552;28;20026;-74
2022/08/12 14:25:59;;;;;;;7.32;3.05;;;;;;;;;;4972681;28;20160;-75
2022/08/12 14:28:25;;;;;;;11.32;2.65;;;;;;;;;;4965607;28;20042;-76
2022/08/12 14:30:52;;;;;;;8.77;2.80;;;;;;;;;;4947860;28;20045;-75
2022/08/12 14:33:47;;;;;;;7.10;2.90;;;;;;;;;;4960682;28;20023;-75
2022/08/12 14:36:14;;;;;;;9.43;2.90;;;;;;;;;;4963953;28;20030;-75
2022/08/12 14:38:41;;;;;;;5.10;2.53;;;;;;;;;;4962492;28;20035;-75
2022/08/12 14:41:08;;;;;;;4.75;2.53;;;;;;;;;;4966488;28;20031;-76
2022/08/12 14:43:37;;;;;;;5.13;2.78;;;;;;;;;;4959802;28;20035;-75
2022/08/12 14:46:23;;;;;;;8.38;2.90;;;;;;;;;;4962397;28;20026;-75
2022/08/12 14:48:51;;;;;;;10.25;2.80;;;;;;;;;;4944161;28;20035;-76
2022/08/12 14:51:18;;;;;;;5.25;2.60;;;;;;;;;;4949411;28;20038;-76
2022/08/12 14:53:45;;;;;;;6.95;2.53;;;;;;;;;;4966243;28;20034;-76
2022/08/12 14:56:14;;;;;;;8.88;2.90;;;;;;;;;;4962447;28;20433;-76
2022/08/12 15:01:37;;;;;;;11.00;2.95;;;;;;;;;;4963719;28;20034;-75
2022/08/12 15:01:38;;;;;;;7.65;2.72;;;;;;;;;;4964843;28;20084;-75
2022/08/12 15:04:14;;;;;;;9.30;2.50;;;;;;;;;;4965173;28;20083;-75
2022/08/12 15:06:40;;;;;;;13.02;2.65;;;;;;;;;;4966481;28;20042;-74
2022/08/12 15:09:07;;;;;;;6.32;2.80;;;;;;;;;;4963759;28;20150;-75
2022/08/12 15:11:34;;;;;;;7.53;2.83;;;;;;;;;;4970217;28;20482;-75
2022/08/12 15:14:00;;;;;;;10.13;2.85;;;;;;;;;;4947811;28;20621;-75
2022/08/12 15:16:26;;;;;;;5.25;2.53;;;;;;;;;;4965896;28;20519;-75
2022/08/12 15:18:53;;;;;;;7.72;2.97;;;;;;;;;;4962145;28;20043;-75
2022/08/12 15:21:19;;;;;;;9.75;2.70;;;;;;;;;;4963283;28;20031;-78
2022/08/12 15:23:45;;;;;;;14.20;2.50;;;;;;;;;;4968171;28;20102;-75
2022/08/12 15:26:12;;;;;;;12.45;2.70;;;;;;;;;;4963035;28;20034;-75
2022/08/12 15:28:42;;;;;;;10.30;2.90;;;;;;;;;;4967150;28;20119;-75
2022/08/12 15:31:08;;;;;;;;;;;;;;;;;;4949819;28;20111;-74
2022/08/12 15:33:35;;;;;;;7.97;2.58;;;;;;;;;;4964941;28;19997;-74
2022/08/12 15:36:01;;;;;;;10.13;2.92;;;;;;;;;;4964521;28;20031;-75
2022/08/12 15:38:30;;;;;;;9.73;3.15;;;;;;;;;;4964920;28;20031;-75
2022/08/12 15:40:58;;;;;;;5.55;2.60;;;;;;;;;;5030589;28;20035;-75
2022/08/12 15:43:25;;;;;;;11.93;2.60;;;;;;;;;;4949657;28;20038;-75
2022/08/12 15:45:52;;;;;;;8.07;3.28;;;;;;;;;;4964283;28;20031;-75
2022/08/12 15:48:18;;;;;;;7.60;2.80;;;;;;;;;;4947774;28;20501;-74
2022/08/12 15:50:44;;;;;;;9.10;2.72;;;;;;;;;;4947396;28;20027;-76
2022/08/12 15:53:11;;;;;;;8.43;2.90;;;;;;;;;;4937298;28;20046;-75
2022/08/12 15:55:37;;;;;;;17.10;3.30;;;;;;;;;;4963075;28;20035;-76
2022/08/12 15:58:03;;;;;;;7.28;2.42;;;;;;;;;;4962025;28;20050;-76
2022/08/12 16:00:31;;;;;;;8.40;2.92;;;;;;;;;;4963133;28;20038;-75
2022/08/12 16:02:57;;;;;;;7.78;2.97;;;;;;;;;;4963906;28;20045;-75
2022/08/12 16:05:25;;;;;;;8.18;2.90;;;;;;;;;;4954206;28;20051;-75
2022/08/12 16:07:51;;;;;;;6.22;2.75;;;;;;;;;;4951961;28;20636;-76
2022/08/12 16:10:18;;;;;;;9.35;2.70;;;;;;;;;;4952003;28;20118;-78
2022/08/12 16:12:45;;;;;;;10.25;2.60;;;;;;;;;;4931940;28;20525;-76
2022/08/12 16:15:13;;;;;;;10.55;2.80;;;;;;;;;;4953411;28;20027;-76
2022/08/12 16:17:40;;;;;;;6.43;3.08;;;;;;;;;;4950019;28;20395;-75
2022/08/12 16:20:10;;;;;;;7.15;2.92;;;;;;;;;;4965331;28;20123;-76
2022/08/12 16:22:37;;;;;;;7.57;2.95;;;;;;;;;;4964159;28;20035;-76
2022/08/12 16:25:08;;;;;;;7.00;3.00;;;;;;;;;;5036326;28;20042;-76